createdAt,value
2023-05-09T00:02:12.345Z,3.20
2023-05-09T00:07:07.540Z,2.90
2023-05-09T00:09:34.594Z,2.90
2023-05-09T00:12:02.762Z,2.90
2023-05-09T00:14:29.942Z,2.40
2023-05-09T00:16:59.485Z,2.10
2023-05-09T00:19:26.637Z,2.00
2023-05-09T00:21:54.286Z,2.70
2023-05-09T00:24:21.671Z,2.70
2023-05-09T00:26:49.042Z,2.70
2023-05-09T00:29:16.157Z,2.80
2023-05-09T00:31:43.245Z,2.30
2023-05-09T00:34:10.497Z,2.90
2023-05-09T00:36:37.619Z,2.80
2023-05-09T00:39:05.802Z,2.50
2023-05-09T00:41:32.876Z,2.60
2023-05-09T00:44:00.201Z,2.80
2023-05-09T00:46:27.230Z,2.60
2023-05-09T00:48:54.281Z,3.20
2023-05-09T00:51:21.922Z,2.50
2023-05-09T00:53:49.398Z,2.80
2023-05-09T00:56:16.653Z,2.60
2023-05-09T00:58:43.963Z,2.40
2023-05-09T01:01:11.797Z,2.80
2023-05-09T01:03:39.794Z,3.00
2023-05-09T01:06:08.586Z,2.90
2023-05-09T01:08:45.573Z,2.60
2023-05-09T01:11:29.488Z,2.70
2023-05-09T01:14:19.194Z,2.70
2023-05-09T01:16:55.236Z,2.60
2023-05-09T01:19:46.136Z,2.50
2023-05-09T01:22:13.729Z,2.00
2023-05-09T01:24:48.336Z,2.50
2023-05-09T01:27:22.811Z,2.50
2023-05-09T01:29:57.289Z,2.30
2023-05-09T01:32:28.393Z,2.80
2023-05-09T01:34:56.372Z,2.60
2023-05-09T01:39:53.622Z,2.50
2023-05-09T01:42:20.855Z,2.40
2023-05-09T01:44:48.316Z,2.60
2023-05-09T01:47:16.722Z,2.60
2023-05-09T01:49:43.978Z,2.90
2023-05-09T01:52:13.706Z,2.70
2023-05-09T01:54:40.783Z,2.80
2023-05-09T01:57:08.037Z,2.90
2023-05-09T01:59:35.394Z,2.70
2023-05-09T02:02:03.493Z,2.40
2023-05-09T02:04:30.748Z,2.70
2023-05-09T02:06:57.773Z,2.40
2023-05-09T02:09:24.802Z,2.60
2023-05-09T02:11:52.035Z,2.30
2023-05-09T02:14:19.972Z,2.50
2023-05-09T02:16:47.047Z,3.10
2023-05-09T02:19:14.067Z,2.70
2023-05-09T02:21:41.375Z,2.40
2023-05-09T02:24:08.684Z,2.60
2023-05-09T02:26:35.997Z,2.40
2023-05-09T02:29:03.833Z,2.30
2023-05-09T02:33:59.412Z,2.10
2023-05-09T02:36:26.854Z,2.20
2023-05-09T02:38:53.872Z,3.00
2023-05-09T02:41:21.975Z,2.60
2023-05-09T02:43:48.981Z,2.30
2023-05-09T02:46:16.414Z,3.10
2023-05-09T02:48:43.659Z,2.40
2023-05-09T02:51:10.735Z,2.60
2023-05-09T02:53:37.759Z,2.10
2023-05-09T02:56:05.097Z,2.20
2023-05-09T02:58:32.164Z,2.50
2023-05-09T03:00:59.304Z,2.40
2023-05-09T03:03:26.405Z,2.40
2023-05-09T03:05:53.724Z,2.30
2023-05-09T03:08:20.722Z,2.50
2023-05-09T03:10:47.950Z,2.30
2023-05-09T03:13:15.824Z,2.30
2023-05-09T03:15:43.157Z,2.50
2023-05-09T03:18:12.543Z,2.70
2023-05-09T03:20:40.402Z,2.50
2023-05-09T03:23:07.457Z,2.40
2023-05-09T03:25:34.870Z,2.50
2023-05-09T03:28:01.963Z,2.60
2023-05-09T03:30:29.708Z,2.30
2023-05-09T03:32:56.911Z,2.40
2023-05-09T03:35:23.998Z,2.20
2023-05-09T03:37:51.340Z,2.40
2023-05-09T03:40:18.581Z,2.30
2023-05-09T03:42:53.187Z,2.60
2023-05-09T03:45:20.558Z,2.70
2023-05-09T03:47:47.715Z,2.80
2023-05-09T03:52:43.449Z,2.20
2023-05-09T03:57:39.059Z,2.20
2023-05-09T04:00:08.179Z,2.20
2023-05-09T04:02:42.398Z,2.10
2023-05-09T04:05:13.677Z,2.20
2023-05-09T04:07:41.305Z,2.70
2023-05-09T04:10:09.592Z,2.40
2023-05-09T04:12:36.614Z,2.20
2023-05-09T04:15:04.126Z,3.20
2023-05-09T04:17:31.600Z,1.70
2023-05-09T04:19:58.721Z,2.40
2023-05-09T04:22:25.943Z,1.90
2023-05-09T04:24:53.667Z,2.60
2023-05-09T04:27:21.139Z,2.20
2023-05-09T04:29:49.494Z,2.30
2023-05-09T04:32:16.663Z,2.20
2023-05-09T04:34:43.829Z,2.00
2023-05-09T04:37:15.634Z,2.30
2023-05-09T04:39:43.660Z,1.80
2023-05-09T04:42:18.387Z,2.30
2023-05-09T04:44:45.515Z,2.00
2023-05-09T04:47:12.956Z,2.00
2023-05-09T04:49:40.412Z,1.90
2023-05-09T04:52:08.687Z,2.10
2023-05-09T04:54:36.180Z,2.10
2023-05-09T04:57:17.269Z,2.00
2023-05-09T04:59:46.400Z,2.10
2023-05-09T05:02:14.358Z,2.10
2023-05-09T05:04:41.962Z,2.00
2023-05-09T05:07:09.255Z,1.80
2023-05-09T05:09:36.366Z,2.00
2023-05-09T05:12:09.267Z,2.10
2023-05-09T05:14:37.806Z,2.20
2023-05-09T05:17:05.609Z,2.40
2023-05-09T05:19:32.925Z,2.10
2023-05-09T05:22:01.136Z,2.30
2023-05-09T05:24:29.483Z,2.10
2023-05-09T05:26:57.189Z,1.90
2023-05-09T05:29:25.924Z,1.70
2023-05-09T05:31:53.067Z,2.60
2023-05-09T05:34:21.167Z,2.20
2023-05-09T05:36:48.512Z,2.10
2023-05-09T05:39:16.305Z,2.50
2023-05-09T05:41:43.281Z,2.50
2023-05-09T05:44:10.585Z,1.90
2023-05-09T05:46:38.265Z,2.20
2023-05-09T05:49:05.520Z,2.10
2023-05-09T05:51:33.901Z,2.10
2023-05-09T05:54:01.277Z,2.30
2023-05-09T05:56:28.432Z,2.10
2023-05-09T06:02:22.157Z,2.20
2023-05-09T06:07:16.446Z,2.40
2023-05-09T06:09:43.458Z,2.10
2023-05-09T06:12:11.466Z,2.30
2023-05-09T06:14:38.681Z,2.90
2023-05-09T06:17:06.079Z,2.50
2023-05-09T06:19:33.039Z,2.50
2023-05-09T06:21:59.881Z,2.00
2023-05-09T06:24:35.915Z,2.40
2023-05-09T06:27:03.990Z,1.90
2023-05-09T06:29:31.967Z,1.80
2023-05-09T06:31:58.743Z,2.00
2023-05-09T06:34:25.939Z,1.70
2023-05-09T06:36:52.937Z,1.70
2023-05-09T06:39:19.805Z,1.80
2023-05-09T06:41:47.035Z,1.80
2023-05-09T06:44:19.918Z,1.90
2023-05-09T06:46:46.839Z,1.90
2023-05-09T06:49:13.807Z,1.70
2023-05-09T06:51:40.667Z,1.80
2023-05-09T06:54:07.636Z,1.60
2023-05-09T06:56:34.814Z,2.10
2023-05-09T06:59:01.731Z,2.00
2023-05-09T07:01:29.091Z,1.60
2023-05-09T07:03:56.172Z,1.80
2023-05-09T07:06:23.287Z,1.70
2023-05-09T07:08:50.107Z,1.90
2023-05-09T07:11:17.639Z,1.50
2023-05-09T07:13:44.432Z,1.30
2023-05-09T07:16:11.531Z,1.50
2023-05-09T07:18:39.778Z,1.10
2023-05-09T07:21:07.081Z,1.50
2023-05-09T07:23:34.772Z,1.20
2023-05-09T07:26:01.791Z,1.30
2023-05-09T07:28:29.139Z,1.50
2023-05-09T07:30:56.565Z,1.50
2023-05-09T07:33:23.850Z,1.40
2023-05-09T07:35:52.429Z,1.50
2023-05-09T07:38:19.170Z,1.10
2023-05-09T07:40:46.312Z,1.40
2023-05-09T07:43:13.753Z,1.50
2023-05-09T07:45:41.952Z,1.40
2023-05-09T07:48:09.138Z,1.30
2023-05-09T07:50:36.362Z,1.20
2023-05-09T07:53:03.417Z,1.10
2023-05-09T07:55:30.434Z,0.90
2023-05-09T07:57:57.532Z,1.20
2023-05-09T08:00:24.456Z,1.10
2023-05-09T08:02:51.984Z,1.10
2023-05-09T08:07:46.753Z,0.90
2023-05-09T08:10:13.634Z,1.10
2023-05-09T08:12:40.805Z,1.10
2023-05-09T08:15:08.294Z,1.00
2023-05-09T08:17:35.578Z,1.30
2023-05-09T08:20:05.037Z,1.00
2023-05-09T08:22:32.312Z,0.90
2023-05-09T08:24:59.239Z,1.30
2023-05-09T08:27:26.056Z,0.90
2023-05-09T08:29:53.929Z,1.10
2023-05-09T08:32:22.409Z,1.20
2023-05-09T08:34:49.152Z,1.00
2023-05-09T08:37:16.266Z,0.90
2023-05-09T08:39:43.351Z,0.90
2023-05-09T08:42:10.631Z,1.30
2023-05-09T08:44:37.916Z,0.90
2023-05-09T08:47:05.279Z,1.20
2023-05-09T08:49:32.966Z,0.80
2023-05-09T08:51:59.720Z,1.10
2023-05-09T08:54:26.796Z,1.50
2023-05-09T08:56:53.608Z,1.10
2023-05-09T08:59:23.487Z,1.00
2023-05-09T09:01:50.635Z,0.90
2023-05-09T09:04:17.460Z,1.20
2023-05-09T09:06:44.367Z,1.10
2023-05-09T09:09:11.752Z,1.30
2023-05-09T09:11:38.891Z,1.30
2023-05-09T09:14:12.544Z,1.00
2023-05-09T09:16:43.801Z,1.00
2023-05-09T09:19:13.404Z,1.10
2023-05-09T09:21:41.986Z,1.10
2023-05-09T09:24:09.268Z,0.90
2023-05-09T09:26:45.001Z,0.90
2023-05-09T09:29:12.843Z,1.30
2023-05-09T09:36:36.200Z,0.80
2023-05-09T09:39:04.238Z,1.20
2023-05-09T09:41:36.663Z,1.00
2023-05-09T09:44:07.822Z,1.30
2023-05-09T09:46:47.154Z,0.80
2023-05-09T09:49:15.556Z,1.00
2023-05-09T09:51:42.954Z,1.00
2023-05-09T09:54:11.036Z,1.10
2023-05-09T09:56:42.055Z,1.30
2023-05-09T09:59:10.770Z,1.00
2023-05-09T10:02:12.332Z,1.30
2023-05-09T10:04:43.459Z,1.30
2023-05-09T10:07:12.822Z,1.00
2023-05-09T10:09:43.230Z,1.10
2023-05-09T10:12:10.439Z,1.10
2023-05-09T10:14:37.986Z,1.00
2023-05-09T10:17:05.546Z,1.00
2023-05-09T10:19:32.722Z,1.10
2023-05-09T10:22:06.362Z,0.80
2023-05-09T10:24:42.101Z,0.90
2023-05-09T10:27:10.611Z,1.10
2023-05-09T10:29:40.932Z,0.90
2023-05-09T10:32:12.891Z,0.90
2023-05-09T10:34:40.612Z,0.90
2023-05-09T10:37:08.017Z,1.10
2023-05-09T10:39:36.092Z,1.10
2023-05-09T10:42:03.266Z,0.90
2023-05-09T10:44:30.215Z,1.10
2023-05-09T10:46:57.509Z,1.20
2023-05-09T10:49:24.341Z,1.00
2023-05-09T10:51:51.678Z,1.00
2023-05-09T10:54:30.743Z,1.10
2023-05-09T10:56:58.009Z,0.90
2023-05-09T10:59:46.032Z,1.00
2023-05-09T11:02:14.177Z,1.10
2023-05-09T11:04:41.001Z,1.30
2023-05-09T11:07:29.657Z,0.90
2023-05-09T11:10:10.047Z,1.00
2023-05-09T11:12:59.210Z,1.00
2023-05-09T11:15:29.561Z,1.30
2023-05-09T11:18:12.022Z,1.20
2023-05-09T11:20:42.580Z,1.00
2023-05-09T11:23:11.318Z,1.20
2023-05-09T11:25:41.169Z,1.00
2023-05-09T11:28:08.265Z,0.80
2023-05-09T11:30:43.256Z,0.90
2023-05-09T11:33:33.008Z,0.90
2023-05-09T11:36:19.666Z,0.80
2023-05-09T11:38:47.023Z,1.00
2023-05-09T11:41:14.271Z,1.10
2023-05-09T11:43:42.149Z,0.90
2023-05-09T11:46:09.563Z,1.10
2023-05-09T11:48:40.397Z,0.90
2023-05-09T11:51:07.481Z,0.90
2023-05-09T11:53:35.725Z,1.00
2023-05-09T11:56:04.044Z,1.10
2023-05-09T11:58:31.532Z,1.00
2023-05-09T12:00:58.333Z,1.00
2023-05-09T12:03:25.850Z,1.20
2023-05-09T12:05:53.988Z,0.80
2023-05-09T12:10:49.193Z,1.30
2023-05-09T12:13:19.111Z,0.90
2023-05-09T12:15:46.195Z,1.10
2023-05-09T12:18:13.987Z,1.00
2023-05-09T12:20:46.875Z,1.00
2023-05-09T12:23:13.973Z,0.80
2023-05-09T12:26:01.047Z,1.30
2023-05-09T12:29:32.977Z,1.20
2023-05-09T12:32:00.551Z,1.00
2023-05-09T12:34:27.497Z,1.20
2023-05-09T12:36:54.525Z,1.10
2023-05-09T12:39:22.504Z,1.10
2023-05-09T12:44:30.019Z,1.20
2023-05-09T12:46:59.069Z,1.00
2023-05-09T12:49:26.382Z,1.20
2023-05-09T12:51:54.397Z,1.40
2023-05-09T12:54:22.828Z,1.30
2023-05-09T12:56:53.481Z,1.10
2023-05-09T12:59:24.287Z,1.10
2023-05-09T13:02:01.241Z,1.40
2023-05-09T13:04:28.340Z,1.00
2023-05-09T13:06:57.000Z,1.20
2023-05-09T13:09:24.493Z,1.20
2023-05-09T13:12:23.919Z,1.10
2023-05-09T13:14:51.291Z,0.90
2023-05-09T13:17:18.251Z,0.90
2023-05-09T13:19:45.225Z,1.00
2023-05-09T13:22:12.542Z,1.00
2023-05-09T13:24:39.474Z,1.00
2023-05-09T13:27:06.647Z,1.10
2023-05-09T13:29:33.936Z,1.00
2023-05-09T13:32:00.812Z,1.10
2023-05-09T13:34:28.270Z,0.70
2023-05-09T13:36:55.413Z,1.20
2023-05-09T13:39:22.245Z,1.50
2023-05-09T13:41:52.424Z,1.00
2023-05-09T13:44:19.641Z,1.10
2023-05-09T13:46:46.624Z,1.00
2023-05-09T13:49:13.563Z,1.20
2023-05-09T13:51:40.930Z,1.30
2023-05-09T13:54:12.137Z,1.20
2023-05-09T13:56:39.495Z,1.00
2023-05-09T13:59:06.568Z,1.50
2023-05-09T14:01:33.699Z,1.00
2023-05-09T14:04:00.935Z,1.20
2023-05-09T14:06:30.898Z,1.00
2023-05-09T14:08:57.866Z,1.10
2023-05-09T14:11:25.529Z,1.00
2023-05-09T14:13:52.515Z,1.30
2023-05-09T14:16:20.569Z,1.10
2023-05-09T14:18:48.109Z,1.10
2023-05-09T14:21:15.132Z,1.00
2023-05-09T14:23:42.857Z,1.10
2023-05-09T14:26:09.888Z,0.90
2023-05-09T14:28:37.700Z,1.20
2023-05-09T14:31:04.747Z,1.00
2023-05-09T14:33:32.385Z,1.10
2023-05-09T14:36:02.148Z,0.90
2023-05-09T14:38:29.198Z,1.10
2023-05-09T14:40:56.272Z,1.10
2023-05-09T14:43:23.789Z,0.90
2023-05-09T14:45:51.090Z,1.10
2023-05-09T14:48:18.293Z,0.70
2023-05-09T14:50:45.196Z,1.00
2023-05-09T14:53:12.365Z,0.90
2023-05-09T14:55:41.231Z,1.10
2023-05-09T14:58:08.487Z,1.00
2023-05-09T15:03:03.855Z,1.10
2023-05-09T15:05:31.250Z,1.40
2023-05-09T15:07:58.528Z,0.70
2023-05-09T15:10:27.143Z,0.80
2023-05-09T15:12:54.733Z,1.00
2023-05-09T15:15:25.335Z,1.00
2023-05-09T15:17:52.671Z,1.10
2023-05-09T15:20:20.048Z,1.00
2023-05-09T15:22:47.161Z,1.10
2023-05-09T15:25:14.406Z,0.90
2023-05-09T15:27:41.588Z,1.00
2023-05-09T15:30:09.540Z,1.00
2023-05-09T15:35:05.690Z,1.00
2023-05-09T15:40:03.456Z,1.00
2023-05-09T15:42:31.295Z,1.00
2023-05-09T15:44:58.393Z,1.00
2023-05-09T15:47:25.511Z,1.00
2023-05-09T15:49:52.898Z,1.10
2023-05-09T15:52:19.840Z,0.80
2023-05-09T15:54:46.846Z,0.60
2023-05-09T15:57:14.380Z,0.80
2023-05-09T15:59:41.255Z,1.00
2023-05-09T16:02:08.630Z,1.10
2023-05-09T16:04:36.169Z,1.00
2023-05-09T16:07:03.229Z,1.00
2023-05-09T16:09:30.370Z,1.00
2023-05-09T16:11:57.257Z,1.10
2023-05-09T16:14:24.348Z,1.00
2023-05-09T16:16:53.134Z,1.10
2023-05-09T16:19:21.182Z,1.10
2023-05-09T16:21:48.205Z,1.20
2023-05-09T16:24:15.462Z,1.10
2023-05-09T16:26:42.513Z,0.90
2023-05-09T16:29:09.537Z,1.20
2023-05-09T16:31:36.625Z,1.10
2023-05-09T16:34:03.861Z,0.90
2023-05-09T16:36:32.218Z,1.00
2023-05-09T16:38:59.174Z,0.80
2023-05-09T16:41:26.588Z,1.10
2023-05-09T16:43:53.480Z,1.40
2023-05-09T16:46:20.839Z,1.00
2023-05-09T16:48:50.172Z,1.10
2023-05-09T16:51:17.742Z,0.90
2023-05-09T16:53:44.949Z,1.10
2023-05-09T16:56:12.150Z,1.40
2023-05-09T16:58:39.251Z,1.40
2023-05-09T17:01:06.616Z,1.30
2023-05-09T17:03:33.760Z,1.30
2023-05-09T17:06:00.757Z,1.70
2023-05-09T17:08:27.835Z,1.50
2023-05-09T17:10:55.403Z,1.70
2023-05-09T17:15:52.133Z,1.00
2023-05-09T17:18:33.240Z,1.30
2023-05-09T17:21:01.104Z,1.10
2023-05-09T17:23:27.943Z,1.40
2023-05-09T17:25:54.874Z,1.70
2023-05-09T17:28:21.928Z,1.40
2023-05-09T17:30:48.693Z,1.50
2023-05-09T17:33:16.076Z,1.40
2023-05-09T17:35:43.533Z,1.30
2023-05-09T17:38:10.360Z,1.40
2023-05-09T17:40:37.633Z,1.40
2023-05-09T17:43:04.480Z,1.50
2023-05-09T17:45:31.707Z,1.50
2023-05-09T17:48:00.811Z,1.20
2023-05-09T17:50:27.996Z,1.30
2023-05-09T17:52:56.847Z,1.40
2023-05-09T17:55:23.828Z,1.10
2023-05-09T17:57:51.353Z,1.30
2023-05-09T18:00:19.097Z,1.50
2023-05-09T18:02:47.427Z,1.10
2023-05-09T18:05:14.223Z,1.10
2023-05-09T18:07:41.216Z,1.40
2023-05-09T18:10:08.923Z,1.50
2023-05-09T18:12:37.305Z,1.50
2023-05-09T18:18:07.465Z,1.60
2023-05-09T18:20:34.830Z,1.90
2023-05-09T18:23:01.897Z,2.10
2023-05-09T18:25:29.380Z,1.80
2023-05-09T18:27:56.864Z,2.00
2023-05-09T18:30:23.834Z,1.80
2023-05-09T18:32:51.355Z,1.40
2023-05-09T18:35:18.474Z,1.70
2023-05-09T18:37:45.577Z,2.20
2023-05-09T18:40:15.813Z,2.20
2023-05-09T18:42:49.890Z,2.10
2023-05-09T18:45:17.301Z,2.10
2023-05-09T18:47:44.573Z,2.10
2023-05-09T18:50:13.868Z,2.10
2023-05-09T18:52:41.140Z,2.40
2023-05-09T18:55:08.746Z,2.30
2023-05-09T18:57:36.114Z,2.10
2023-05-09T19:00:03.773Z,2.10
2023-05-09T19:02:30.875Z,2.60
2023-05-09T19:04:57.951Z,2.50
2023-05-09T19:07:25.025Z,2.40
2023-05-09T19:09:52.573Z,2.30
2023-05-09T19:12:19.558Z,2.20
2023-05-09T19:14:46.738Z,2.30
2023-05-09T19:17:13.919Z,2.00
2023-05-09T19:19:41.070Z,2.30
2023-05-09T19:22:08.321Z,2.20
2023-05-09T19:24:35.373Z,2.10
2023-05-09T19:27:02.578Z,2.20
2023-05-09T19:29:29.824Z,2.10
2023-05-09T19:31:56.826Z,2.30
2023-05-09T19:34:24.115Z,1.90
2023-05-09T19:36:51.487Z,2.40
2023-05-09T19:39:18.721Z,2.10
2023-05-09T19:41:46.484Z,2.20
2023-05-09T19:44:13.740Z,2.70
2023-05-09T19:46:43.153Z,2.20
2023-05-09T19:49:10.655Z,2.30
2023-05-09T19:51:37.871Z,2.30
2023-05-09T19:54:05.271Z,1.90
2023-05-09T19:56:32.321Z,2.30
2023-05-09T19:58:59.651Z,2.00
2023-05-09T20:01:26.717Z,2.20
2023-05-09T20:03:53.973Z,2.30
2023-05-09T20:09:06.791Z,2.00
2023-05-09T20:11:34.022Z,2.40
2023-05-09T20:14:01.309Z,2.50
2023-05-09T20:16:28.676Z,2.50
2023-05-09T20:18:55.807Z,2.30
2023-05-09T20:21:22.934Z,2.70
2023-05-09T20:23:50.138Z,2.40
2023-05-09T20:26:17.202Z,2.80
2023-05-09T20:28:44.255Z,2.90
2023-05-09T20:31:11.877Z,2.40
2023-05-09T20:33:40.209Z,2.70
2023-05-09T20:36:09.590Z,2.40
2023-05-09T20:38:36.587Z,3.20
2023-05-09T20:41:04.278Z,2.50
2023-05-09T20:43:31.460Z,2.90
2023-05-09T20:45:58.768Z,2.70
2023-05-09T20:48:26.093Z,2.90
2023-05-09T20:50:53.049Z,2.70
2023-05-09T20:53:20.293Z,2.30
2023-05-09T20:55:49.554Z,2.40
2023-05-09T20:58:17.620Z,2.60
2023-05-09T21:00:47.229Z,2.30
2023-05-09T21:03:14.548Z,2.40
2023-05-09T21:05:41.640Z,2.50
2023-05-09T21:08:08.718Z,2.50
2023-05-09T21:10:35.970Z,2.60
2023-05-09T21:13:04.534Z,2.60
2023-05-09T21:15:31.558Z,2.40
2023-05-09T21:17:58.854Z,2.70
2023-05-09T21:20:26.418Z,2.80
2023-05-09T21:22:53.701Z,2.40
2023-05-09T21:25:20.952Z,2.70
2023-05-09T21:27:47.924Z,2.60
2023-05-09T21:30:15.000Z,2.90
2023-05-09T21:32:42.207Z,2.90
2023-05-09T21:35:12.800Z,3.10
2023-05-09T21:37:39.965Z,2.80
2023-05-09T21:40:07.986Z,3.50
2023-05-09T21:42:36.141Z,3.10
2023-05-09T21:45:03.909Z,3.10
2023-05-09T21:47:31.445Z,3.10
2023-05-09T21:49:58.641Z,3.00
2023-05-09T21:52:25.594Z,3.40
2023-05-09T21:54:52.667Z,3.10
2023-05-09T21:57:19.638Z,3.00
2023-05-09T21:59:46.714Z,3.20
2023-05-09T22:02:14.587Z,3.30
2023-05-09T22:07:08.712Z,2.40
2023-05-09T22:09:35.690Z,3.10
2023-05-09T22:12:02.839Z,2.50
2023-05-09T22:14:29.779Z,2.90
2023-05-09T22:16:56.704Z,3.10
2023-05-09T22:19:23.704Z,2.80
2023-05-09T22:21:50.856Z,2.60
2023-05-09T22:24:18.186Z,2.90
2023-05-09T22:26:45.192Z,2.80
2023-05-09T22:29:12.258Z,2.70
2023-05-09T22:31:39.370Z,3.10
2023-05-09T22:34:06.384Z,2.70
2023-05-09T22:36:33.646Z,3.00
2023-05-09T22:39:00.705Z,2.80
2023-05-09T22:41:27.714Z,3.00
2023-05-09T22:43:55.045Z,2.80
2023-05-09T22:46:22.842Z,2.70
2023-05-09T22:48:50.040Z,2.80
2023-05-09T22:51:17.070Z,2.60
2023-05-09T22:53:44.217Z,2.50
2023-05-09T22:56:11.706Z,2.30
2023-05-09T22:58:38.676Z,2.50
2023-05-09T23:01:06.236Z,2.50
2023-05-09T23:03:33.302Z,2.40
2023-05-09T23:06:00.294Z,2.30
2023-05-09T23:08:27.365Z,2.70
2023-05-09T23:10:54.322Z,2.40
2023-05-09T23:13:21.599Z,2.30
2023-05-09T23:15:48.710Z,2.20
2023-05-09T23:18:15.940Z,2.70
2023-05-09T23:20:42.999Z,2.00
2023-05-09T23:23:10.334Z,2.80
2023-05-09T23:25:38.971Z,2.60
2023-05-09T23:28:05.868Z,2.30
2023-05-09T23:30:32.887Z,2.30
2023-05-09T23:32:59.895Z,2.20
2023-05-09T23:35:26.968Z,2.30
2023-05-09T23:37:54.126Z,2.20
2023-05-09T23:40:21.430Z,2.80
2023-05-09T23:42:48.496Z,2.60
2023-05-09T23:45:15.497Z,2.10
2023-05-09T23:47:42.743Z,2.50
2023-05-09T23:50:10.809Z,2.50
2023-05-09T23:55:05.462Z,2.10
2023-05-09T23:57:32.612Z,2.00
2023-05-09T23:59:59.811Z,2.10
